createdAt,value
2023-02-11T00:00:44.363Z,30.30
2023-02-11T00:03:11.255Z,25.10
2023-02-11T00:05:38.277Z,26.67
2023-02-11T00:08:05.397Z,33.70
2023-02-11T00:10:32.291Z,21.80
2023-02-11T00:12:59.232Z,26.73
2023-02-11T00:15:26.114Z,27.50
2023-02-11T00:17:52.867Z,30.60
2023-02-11T00:20:19.761Z,24.52
2023-02-11T00:22:46.622Z,26.15
2023-02-11T00:25:13.477Z,20.50
2023-02-11T00:27:40.297Z,27.40
2023-02-11T00:30:07.970Z,24.05
2023-02-11T00:32:34.837Z,26.05
2023-02-11T00:35:01.714Z,24.58
2023-02-11T00:37:28.861Z,23.98
2023-02-11T00:39:55.680Z,20.45
2023-02-11T00:42:22.466Z,20.20
2023-02-11T00:44:49.243Z,18.42
2023-02-11T00:47:17.151Z,13.07
2023-02-11T00:49:44.190Z,26.90
2023-02-11T00:52:11.033Z,21.50
2023-02-11T00:54:38.471Z,26.73
2023-02-11T00:57:06.873Z,21.45
2023-02-11T00:59:33.716Z,23.58
2023-02-11T01:02:01.548Z,22.90
2023-02-11T01:04:28.578Z,19.95
2023-02-11T01:06:55.396Z,25.33
2023-02-11T01:09:22.244Z,18.38
2023-02-11T01:11:49.107Z,18.55
2023-02-11T01:14:16.470Z,18.95
2023-02-11T01:16:43.323Z,23.55
2023-02-11T01:19:10.545Z,17.05
2023-02-11T01:21:37.418Z,19.63
2023-02-11T01:24:04.383Z,18.98
2023-02-11T01:26:31.178Z,18.23
2023-02-11T01:29:00.144Z,18.40
2023-02-11T01:31:28.336Z,17.95
2023-02-11T01:33:55.249Z,18.15
2023-02-11T01:36:22.355Z,9.98
2023-02-11T01:38:50.003Z,18.95
2023-02-11T01:41:19.558Z,14.68
2023-02-11T01:43:49.826Z,14.82
2023-02-11T01:46:38.203Z,14.65
2023-02-11T01:49:16.369Z,16.75
2023-02-11T01:51:55.077Z,22.25
2023-02-11T01:57:22.113Z,21.30
2023-02-11T02:00:00.110Z,17.65
2023-02-11T02:02:42.740Z,18.67
2023-02-11T02:05:40.197Z,14.35
2023-02-11T02:08:14.786Z,17.73
2023-02-11T02:10:47.652Z,15.40
2023-02-11T02:13:17.426Z,17.13
2023-02-11T02:16:01.109Z,16.23
2023-02-11T02:19:01.916Z,17.88
2023-02-11T02:22:06.157Z,10.70
2023-02-11T02:25:10.757Z,14.90
2023-02-11T02:28:03.197Z,15.48
2023-02-11T02:30:44.869Z,16.48
2023-02-11T02:33:24.079Z,20.17
2023-02-11T02:36:31.047Z,17.88
2023-02-11T02:39:07.683Z,22.23
2023-02-11T02:41:39.064Z,15.48
2023-02-11T02:44:08.650Z,18.02
2023-02-11T02:46:37.299Z,16.88
2023-02-11T02:49:12.695Z,18.30
2023-02-11T02:52:15.473Z,21.63
2023-02-11T02:54:53.217Z,16.65
2023-02-11T02:57:50.826Z,19.73
2023-02-11T03:01:04.731Z,19.70
2023-02-11T03:04:23.399Z,22.83
2023-02-11T03:07:17.919Z,20.95
2023-02-11T03:10:00.434Z,17.45
2023-02-11T03:12:33.116Z,14.90
2023-02-11T03:15:03.815Z,20.00
2023-02-11T03:17:35.799Z,19.98
2023-02-11T03:20:10.089Z,16.75
2023-02-11T03:23:19.020Z,14.88
2023-02-11T03:25:56.128Z,17.55
2023-02-11T03:28:37.276Z,15.07
2023-02-11T03:31:17.899Z,17.02
2023-02-11T03:34:04.176Z,15.13
2023-02-11T03:36:50.063Z,22.08
2023-02-11T03:39:25.694Z,16.10
2023-02-11T03:41:58.606Z,28.05
2023-02-11T03:44:33.229Z,14.63
2023-02-11T03:47:03.838Z,17.30
2023-02-11T03:49:33.728Z,28.08
2023-02-11T03:52:03.634Z,19.80
2023-02-11T03:54:31.274Z,17.77
2023-02-11T03:57:01.582Z,18.40
2023-02-11T03:59:29.376Z,21.65
2023-02-11T04:01:57.733Z,19.13
2023-02-11T04:04:24.629Z,15.18
2023-02-11T04:06:51.512Z,22.45
2023-02-11T04:09:18.397Z,21.23
2023-02-11T04:11:45.198Z,22.92
2023-02-11T04:14:11.984Z,13.15
2023-02-11T04:16:38.833Z,18.67
2023-02-11T04:19:05.663Z,22.33
2023-02-11T04:21:32.435Z,22.58
2023-02-11T04:23:59.253Z,19.50
2023-02-11T04:26:26.098Z,17.98
2023-02-11T04:28:52.962Z,14.63
2023-02-11T04:31:19.869Z,16.30
2023-02-11T04:33:46.887Z,21.17
2023-02-11T04:36:13.759Z,23.17
2023-02-11T04:38:40.512Z,17.30
2023-02-11T04:41:07.345Z,20.30
2023-02-11T04:43:34.164Z,25.42
2023-02-11T04:46:01.048Z,11.93
2023-02-11T04:48:27.998Z,21.77
2023-02-11T04:50:54.794Z,17.77
2023-02-11T04:53:21.637Z,20.90
2023-02-11T04:55:53.449Z,18.90
2023-02-11T04:58:20.999Z,19.65
2023-02-11T05:00:48.202Z,23.70
2023-02-11T05:03:16.689Z,22.80
2023-02-11T05:05:44.274Z,16.65
2023-02-11T05:08:12.037Z,20.20
2023-02-11T05:10:39.462Z,23.60
2023-02-11T05:13:06.264Z,26.45
2023-02-11T05:15:33.778Z,20.67
2023-02-11T05:18:01.138Z,23.20
2023-02-11T05:20:28.309Z,20.63
2023-02-11T05:22:55.338Z,18.67
2023-02-11T05:25:22.155Z,17.92
2023-02-11T05:27:48.979Z,22.17
2023-02-11T05:30:15.883Z,23.83
2023-02-11T05:32:42.662Z,21.17
2023-02-11T05:35:09.594Z,21.20
2023-02-11T05:37:36.666Z,22.45
2023-02-11T05:40:04.305Z,26.60
2023-02-11T05:42:31.156Z,18.75
2023-02-11T05:44:58.124Z,23.58
2023-02-11T05:47:25.097Z,17.85
2023-02-11T05:49:53.478Z,12.50
2023-02-11T05:52:22.219Z,22.90
2023-02-11T05:54:49.432Z,28.30
2023-02-11T05:57:17.228Z,18.65
2023-02-11T05:59:44.417Z,21.13
2023-02-11T06:02:12.390Z,19.90
2023-02-11T06:04:39.260Z,25.40
2023-02-11T06:07:06.091Z,28.52
2023-02-11T06:09:32.971Z,19.05
2023-02-11T06:11:59.767Z,24.08
2023-02-11T06:14:26.606Z,24.45
2023-02-11T06:16:53.392Z,22.40
2023-02-11T06:19:20.350Z,24.00
2023-02-11T06:21:47.173Z,20.92
2023-02-11T06:24:13.999Z,35.47
2023-02-11T06:26:41.062Z,30.90
2023-02-11T06:29:07.899Z,23.25
2023-02-11T06:31:34.986Z,21.23
2023-02-11T06:34:01.915Z,27.55
2023-02-11T06:36:28.777Z,26.88
2023-02-11T06:38:55.701Z,24.83
2023-02-11T06:41:22.920Z,32.80
2023-02-11T06:43:52.779Z,19.17
2023-02-11T06:46:19.746Z,28.80
2023-02-11T06:48:46.653Z,24.92
2023-02-11T06:51:14.961Z,23.35
2023-02-11T06:53:47.332Z,33.97
2023-02-11T06:58:58.117Z,28.60
2023-02-11T07:01:27.819Z,34.92
2023-02-11T07:03:54.811Z,33.30
2023-02-11T07:06:27.963Z,39.33
2023-02-11T07:08:55.862Z,21.30
2023-02-11T07:11:28.440Z,29.80
2023-02-11T07:14:01.220Z,24.90
2023-02-11T07:16:28.505Z,19.77
2023-02-11T07:18:55.365Z,32.28
2023-02-11T07:21:24.353Z,28.02
2023-02-11T07:23:52.285Z,35.38
2023-02-11T07:26:23.149Z,23.73
2023-02-11T07:28:51.476Z,21.98
2023-02-11T07:31:28.790Z,32.95
2023-02-11T07:33:59.924Z,42.30
2023-02-11T07:36:29.495Z,34.10
2023-02-11T07:38:56.785Z,26.80
2023-02-11T07:41:25.305Z,35.50
2023-02-11T07:43:52.799Z,24.17
2023-02-11T07:46:25.683Z,31.65
2023-02-11T07:48:53.759Z,26.55
2023-02-11T07:51:29.952Z,24.88
2023-02-11T07:53:59.647Z,31.42
2023-02-11T07:56:28.058Z,45.50
2023-02-11T07:58:56.887Z,43.53
2023-02-11T08:01:28.382Z,31.23
2023-02-11T08:04:00.865Z,36.15
2023-02-11T08:06:34.611Z,38.17
2023-02-11T08:09:07.941Z,37.38
2023-02-11T08:11:35.643Z,30.88
2023-02-11T08:14:03.156Z,29.73
2023-02-11T08:16:34.703Z,42.85
2023-02-11T08:19:06.695Z,39.63
2023-02-11T08:21:33.736Z,37.72
2023-02-11T08:24:02.992Z,38.97
2023-02-11T08:26:32.835Z,43.50
2023-02-11T08:28:59.738Z,42.05
2023-02-11T08:31:35.194Z,32.03
2023-02-11T08:34:02.528Z,31.48
2023-02-11T08:36:42.433Z,48.85
2023-02-11T08:39:20.832Z,35.22
2023-02-11T08:44:22.803Z,32.97
2023-02-11T08:46:51.368Z,31.27
2023-02-11T08:49:18.276Z,24.45
2023-02-11T08:51:45.888Z,39.78
2023-02-11T08:54:13.883Z,36.80
2023-02-11T08:56:41.225Z,31.48
2023-02-11T08:59:12.549Z,52.83
2023-02-11T09:01:39.550Z,31.00
2023-02-11T09:04:06.449Z,44.05
2023-02-11T09:06:33.632Z,39.08
2023-02-11T09:09:00.503Z,38.03
2023-02-11T09:11:33.080Z,42.00
2023-02-11T09:14:01.552Z,42.05
2023-02-11T09:16:32.345Z,31.95
2023-02-11T09:19:01.741Z,42.53
2023-02-11T09:21:29.907Z,48.47
2023-02-11T09:23:57.666Z,45.92
2023-02-11T09:26:31.378Z,45.67
2023-02-11T09:28:59.228Z,50.97
2023-02-11T09:31:29.310Z,43.10
2023-02-11T09:34:01.181Z,45.90
2023-02-11T09:36:33.910Z,42.28
2023-02-11T09:39:02.734Z,33.25
2023-02-11T09:41:59.229Z,53.63
2023-02-11T09:44:32.652Z,41.55
2023-02-11T09:47:15.908Z,42.80
2023-02-11T09:49:52.966Z,48.08
2023-02-11T09:52:51.865Z,42.00
2023-02-11T09:55:26.481Z,51.40
2023-02-11T09:57:53.714Z,50.60
2023-02-11T10:00:33.095Z,41.95
2023-02-11T10:03:37.374Z,39.15
2023-02-11T10:06:24.004Z,47.78
2023-02-11T10:09:29.216Z,53.40
2023-02-11T10:12:44.401Z,48.03
2023-02-11T10:15:46.509Z,48.90
2023-02-11T10:19:14.980Z,35.45
2023-02-11T10:22:19.985Z,50.72
2023-02-11T10:25:00.189Z,52.97
2023-02-11T10:27:33.374Z,45.42
2023-02-11T10:30:32.262Z,37.85
2023-02-11T10:33:27.567Z,44.22
2023-02-11T10:35:54.474Z,41.75
2023-02-11T10:38:21.670Z,36.05
2023-02-11T10:40:48.674Z,36.70
2023-02-11T10:43:19.604Z,47.90
2023-02-11T10:45:52.933Z,48.03
2023-02-11T10:48:40.213Z,34.53
2023-02-11T10:51:14.609Z,52.78
2023-02-11T10:53:42.334Z,41.65
2023-02-11T10:56:22.177Z,43.28
2023-02-11T10:59:01.945Z,38.45
2023-02-11T11:02:01.733Z,29.85
2023-02-11T11:04:42.383Z,45.75
2023-02-11T11:07:14.315Z,51.75
2023-02-11T11:09:55.859Z,36.70
2023-02-11T11:12:35.097Z,42.45
2023-02-11T11:15:22.989Z,44.53
2023-02-11T11:18:20.788Z,34.15
2023-02-11T11:21:07.578Z,41.78
2023-02-11T11:23:38.204Z,37.20
2023-02-11T11:26:14.198Z,37.15
2023-02-11T11:28:50.938Z,40.72
2023-02-11T11:31:24.814Z,44.45
2023-02-11T11:33:55.440Z,34.60
2023-02-11T11:36:34.105Z,47.30
2023-02-11T11:39:17.476Z,26.60
2023-02-11T11:42:00.554Z,39.03
2023-02-11T11:44:39.841Z,38.70
2023-02-11T11:47:13.399Z,45.75
2023-02-11T11:50:35.566Z,32.85
2023-02-11T11:53:18.743Z,38.15
2023-02-11T11:55:53.512Z,32.20
2023-02-11T11:58:23.816Z,38.22
2023-02-11T12:01:27.772Z,35.70
2023-02-11T12:04:29.739Z,35.72
2023-02-11T12:07:40.402Z,33.67
2023-02-11T12:10:42.417Z,32.67
2023-02-11T12:13:48.935Z,25.10
2023-02-11T12:17:00.314Z,29.90
2023-02-11T12:19:35.783Z,34.92
2023-02-11T12:22:27.162Z,34.75
2023-02-11T12:25:13.137Z,41.40
2023-02-11T12:28:45.832Z,36.92
2023-02-11T12:31:26.871Z,36.17
2023-02-11T12:34:12.504Z,18.63
2023-02-11T12:37:14.822Z,32.03
2023-02-11T12:40:06.481Z,35.33
2023-02-11T12:43:07.074Z,26.70
2023-02-11T12:46:07.336Z,35.63
2023-02-11T12:49:05.095Z,33.47
2023-02-11T12:51:56.482Z,25.98
2023-02-11T12:57:23.119Z,26.95
2023-02-11T13:00:08.617Z,28.85
2023-02-11T13:02:56.457Z,27.15
2023-02-11T13:05:58.757Z,28.05
2023-02-11T13:08:50.113Z,29.65
2023-02-11T13:11:24.421Z,25.95
2023-02-11T13:14:32.585Z,29.30
2023-02-11T13:17:00.115Z,25.70
2023-02-11T13:19:34.181Z,34.85
2023-02-11T13:22:21.204Z,32.30
2023-02-11T13:25:10.927Z,34.97
2023-02-11T13:28:22.716Z,31.13
2023-02-11T13:30:57.842Z,35.45
2023-02-11T13:33:42.908Z,28.58
2023-02-11T13:36:09.697Z,29.70
2023-02-11T13:38:38.133Z,26.25
2023-02-11T13:41:21.131Z,30.73
2023-02-11T13:44:10.359Z,27.45
2023-02-11T13:47:07.467Z,24.80
2023-02-11T13:52:38.826Z,26.83
2023-02-11T13:55:21.637Z,25.25
2023-02-11T13:58:08.392Z,26.83
2023-02-11T14:00:35.247Z,25.67
2023-02-11T14:03:29.775Z,24.90
2023-02-11T14:06:27.588Z,27.45
2023-02-11T14:09:09.688Z,34.88
2023-02-11T14:12:31.659Z,24.83
2023-02-11T14:15:07.762Z,33.42
2023-02-11T14:17:35.358Z,32.70
2023-02-11T14:20:24.714Z,22.15
2023-02-11T14:22:54.279Z,34.42
2023-02-11T14:25:27.025Z,34.65
2023-02-11T14:28:11.509Z,28.20
2023-02-11T14:30:51.433Z,34.88
2023-02-11T14:33:47.469Z,30.50
2023-02-11T14:36:43.852Z,31.02
2023-02-11T14:39:53.144Z,27.80
2023-02-11T14:42:26.696Z,25.92
2023-02-11T14:44:59.006Z,21.45
2023-02-11T14:47:56.262Z,22.83
2023-02-11T14:50:33.139Z,17.30
2023-02-11T14:53:03.212Z,13.40
2023-02-11T14:55:38.075Z,16.80
2023-02-11T14:58:24.032Z,18.98
2023-02-11T15:01:08.966Z,26.58
2023-02-11T15:03:42.602Z,17.58
2023-02-11T15:06:32.742Z,20.42
2023-02-11T15:09:07.793Z,25.65
2023-02-11T15:11:41.329Z,24.98
2023-02-11T15:14:17.075Z,26.63
2023-02-11T15:16:46.727Z,14.55
2023-02-11T15:19:34.617Z,21.23
2023-02-11T15:22:07.159Z,24.38
2023-02-11T15:27:08.440Z,17.50
2023-02-11T15:29:39.785Z,25.60
2023-02-11T15:34:41.798Z,22.20
2023-02-11T15:37:17.103Z,20.77
2023-02-11T15:39:44.161Z,19.67
2023-02-11T15:42:38.072Z,27.30
2023-02-11T15:45:17.044Z,20.23
2023-02-11T15:47:54.489Z,26.88
2023-02-11T15:50:29.417Z,25.60
2023-02-11T15:53:01.144Z,28.52
2023-02-11T15:55:29.829Z,26.45
2023-02-11T15:58:01.461Z,25.23
2023-02-11T16:00:44.860Z,25.77
2023-02-11T16:03:32.743Z,16.42
2023-02-11T16:06:22.870Z,23.88
2023-02-11T16:09:23.456Z,20.95
2023-02-11T16:11:50.209Z,25.52
2023-02-11T16:14:39.385Z,24.00
2023-02-11T16:17:30.056Z,26.15
2023-02-11T16:19:56.928Z,24.17
2023-02-11T16:22:30.097Z,25.42
2023-02-11T16:25:00.133Z,26.67
2023-02-11T16:27:41.601Z,24.08
2023-02-11T16:30:32.520Z,32.45
2023-02-11T16:32:59.376Z,21.00
2023-02-11T16:35:26.347Z,32.13
2023-02-11T16:37:54.400Z,19.30
2023-02-11T16:40:23.527Z,17.95
2023-02-11T16:42:52.451Z,31.40
2023-02-11T16:45:19.581Z,23.52
2023-02-11T16:47:46.541Z,25.25
2023-02-11T16:50:24.038Z,26.13
2023-02-11T16:52:52.422Z,30.70
2023-02-11T16:55:21.975Z,22.60
2023-02-11T16:57:49.693Z,32.35
2023-02-11T17:00:18.488Z,20.85
2023-02-11T17:02:45.742Z,26.50
2023-02-11T17:05:20.323Z,24.42
2023-02-11T17:07:47.284Z,31.13
2023-02-11T17:10:23.663Z,28.20
2023-02-11T17:12:51.432Z,31.33
2023-02-11T17:15:18.424Z,34.15
2023-02-11T17:17:45.917Z,34.10
2023-02-11T17:20:14.414Z,39.60
2023-02-11T17:22:41.653Z,38.08
2023-02-11T17:25:12.561Z,35.15
2023-02-11T17:27:39.493Z,34.30
2023-02-11T17:30:07.349Z,33.45
2023-02-11T17:32:34.529Z,22.70
2023-02-11T17:35:02.719Z,23.65
2023-02-11T17:37:30.361Z,24.02
2023-02-11T17:39:57.171Z,35.45
2023-02-11T17:42:24.021Z,36.45
2023-02-11T17:44:50.836Z,24.30
2023-02-11T17:47:17.725Z,30.75
2023-02-11T17:49:45.231Z,32.10
2023-02-11T17:52:12.084Z,24.17
2023-02-11T17:54:39.084Z,30.33
2023-02-11T17:57:05.997Z,32.63
2023-02-11T17:59:35.426Z,29.45
2023-02-11T18:02:04.761Z,35.70
2023-02-11T18:04:33.394Z,19.50
2023-02-11T18:07:00.404Z,36.92
2023-02-11T18:09:27.433Z,34.92
2023-02-11T18:11:54.730Z,27.88
2023-02-11T18:14:22.848Z,37.35
2023-02-11T18:16:52.767Z,34.80
2023-02-11T18:19:20.727Z,33.80
2023-02-11T18:21:50.193Z,28.52
2023-02-11T18:24:18.253Z,34.78
2023-02-11T18:26:45.201Z,27.75
2023-02-11T18:29:12.265Z,32.25
2023-02-11T18:31:40.002Z,23.40
2023-02-11T18:34:10.594Z,28.70
2023-02-11T18:36:37.575Z,26.25
2023-02-11T18:39:05.065Z,30.38
2023-02-11T18:41:32.068Z,29.10
2023-02-11T18:44:01.220Z,35.42
2023-02-11T18:46:29.843Z,23.40
2023-02-11T18:48:56.704Z,30.52
2023-02-11T18:51:23.580Z,33.65
2023-02-11T18:53:50.536Z,25.55
2023-02-11T18:56:21.840Z,27.63
2023-02-11T18:58:51.356Z,17.50
2023-02-11T19:01:27.460Z,27.08
2023-02-11T19:03:58.098Z,23.52
2023-02-11T19:06:29.340Z,33.50
2023-02-11T19:09:01.270Z,35.95
2023-02-11T19:11:49.856Z,34.33
2023-02-11T19:14:24.059Z,35.75
2023-02-11T19:16:56.365Z,30.23
2023-02-11T19:21:52.295Z,34.28
2023-02-11T19:24:19.950Z,38.05
2023-02-11T19:26:48.989Z,31.70
2023-02-11T19:29:16.930Z,37.30
2023-02-11T19:31:44.519Z,34.50
2023-02-11T19:34:15.366Z,34.50
2023-02-11T19:36:42.551Z,24.52
2023-02-11T19:39:10.296Z,28.98
2023-02-11T19:41:37.263Z,36.65
2023-02-11T19:44:06.631Z,30.52
2023-02-11T19:46:38.353Z,28.90
2023-02-11T19:49:05.569Z,29.83
2023-02-11T19:51:33.761Z,26.48
2023-02-11T19:54:01.279Z,35.20
2023-02-11T19:56:29.279Z,30.63
2023-02-11T19:58:56.217Z,37.35
2023-02-11T20:01:25.376Z,38.92
2023-02-11T20:03:56.605Z,36.95
2023-02-11T20:06:28.609Z,36.20
2023-02-11T20:11:29.147Z,38.78
2023-02-11T20:13:57.099Z,36.63
2023-02-11T20:16:44.632Z,33.40
2023-02-11T20:19:18.245Z,37.63
2023-02-11T20:21:48.375Z,37.30
2023-02-11T20:24:17.887Z,41.97
2023-02-11T20:26:46.850Z,26.73
2023-02-11T20:29:15.784Z,38.35
2023-02-11T20:31:43.063Z,38.15
2023-02-11T20:34:11.694Z,32.50
2023-02-11T20:36:40.278Z,37.70
2023-02-11T20:39:08.072Z,34.42
2023-02-11T20:41:39.762Z,36.78
2023-02-11T20:44:10.055Z,35.25
2023-02-11T20:46:40.829Z,31.85
2023-02-11T20:49:10.513Z,25.20
2023-02-11T20:51:37.570Z,32.72
2023-02-11T20:54:06.185Z,40.38
2023-02-11T20:56:36.943Z,33.30
2023-02-11T20:59:05.854Z,29.17
2023-02-11T21:01:41.402Z,35.00
2023-02-11T21:04:18.939Z,32.60
2023-02-11T21:06:50.118Z,34.08
2023-02-11T21:09:21.239Z,27.08
2023-02-11T21:11:51.660Z,33.88
2023-02-11T21:14:20.709Z,34.60
2023-02-11T21:16:48.375Z,36.00
2023-02-11T21:19:16.120Z,31.10
2023-02-11T21:21:43.160Z,33.17
2023-02-11T21:24:11.299Z,31.60
2023-02-11T21:26:38.755Z,33.03
2023-02-11T21:29:07.765Z,31.27
2023-02-11T21:31:35.692Z,31.55
2023-02-11T21:34:02.838Z,31.17
2023-02-11T21:36:30.497Z,36.50
2023-02-11T21:38:58.855Z,25.55
2023-02-11T21:41:27.368Z,32.60
2023-02-11T21:43:54.474Z,33.80
2023-02-11T21:46:22.898Z,23.08
2023-02-11T21:48:50.440Z,29.02
2023-02-11T21:51:24.437Z,27.35
2023-02-11T21:54:03.572Z,30.90
2023-02-11T21:56:33.330Z,21.50
2023-02-11T21:59:00.699Z,27.38
2023-02-11T22:01:35.578Z,28.50
2023-02-11T22:04:02.397Z,28.30
2023-02-11T22:06:34.281Z,31.05
2023-02-11T22:09:09.606Z,28.73
2023-02-11T22:11:37.405Z,27.35
2023-02-11T22:14:05.135Z,29.42
2023-02-11T22:16:32.409Z,29.70
2023-02-11T22:19:00.247Z,30.27
2023-02-11T22:21:28.642Z,27.00
2023-02-11T22:23:56.317Z,29.08
2023-02-11T22:26:25.835Z,27.02
2023-02-11T22:28:53.782Z,32.05
2023-02-11T22:31:26.369Z,30.63
2023-02-11T22:33:53.692Z,19.77
2023-02-11T22:36:27.809Z,28.75
2023-02-11T22:38:55.941Z,28.52
2023-02-11T22:41:23.594Z,27.10
2023-02-11T22:43:50.642Z,28.02
2023-02-11T22:46:19.699Z,26.75
2023-02-11T22:48:48.010Z,26.45
2023-02-11T22:51:22.776Z,30.48
2023-02-11T22:53:59.390Z,32.15
2023-02-11T22:56:28.607Z,28.05
2023-02-11T22:59:05.787Z,29.10
2023-02-11T23:01:33.572Z,29.20
2023-02-11T23:04:04.351Z,30.90
2023-02-11T23:06:31.744Z,27.35
2023-02-11T23:08:58.662Z,33.28
2023-02-11T23:11:30.918Z,29.80
2023-02-11T23:16:31.234Z,27.92
2023-02-11T23:19:08.949Z,28.50
2023-02-11T23:21:38.926Z,25.50
2023-02-11T23:24:12.248Z,31.52
2023-02-11T23:26:41.499Z,30.20
2023-02-11T23:29:09.778Z,26.85
2023-02-11T23:31:40.396Z,28.67
2023-02-11T23:34:08.608Z,29.95
2023-02-11T23:36:35.832Z,24.75
2023-02-11T23:39:03.336Z,26.42
2023-02-11T23:41:30.275Z,27.73
2023-02-11T23:43:58.100Z,25.77
2023-02-11T23:46:27.629Z,26.60
2023-02-11T23:48:54.785Z,31.45
2023-02-11T23:51:23.597Z,28.77
2023-02-11T23:53:54.131Z,31.30
2023-02-11T23:56:26.482Z,28.70
2023-02-11T23:58:56.450Z,30.92
